Time,TemperatureF,DewpointF,PressureIn,WindDirection,WindDirectionDegrees,WindSpeedMPH,WindSpeedGustMPH,Humidity,HourlyPrecipIn,Conditions,Clouds,dailyrainin,SoftwareType,DateUTC
2013-02-13 00:00:00,50.4,50.1,29.80,SW,225,1.1,0.0,99,0.00,RA,,0.00,WeatherDisplay:10.37,2013-02-13 06:00:00,
2013-02-13 00:05:00,50.4,50.1,29.80,SW,225,1.1,0.0,99,0.00,RA,,0.00,WeatherDisplay:10.37,2013-02-13 06:05:00,
2013-02-13 00:10:00,50.5,50.3,29.80,SW,225,0.0,0.0,99,0.00,CLR,,0.00,WeatherDisplay:10.37,2013-02-13 06:10:00,
2013-02-13 00:15:00,50.5,50.3,29.79,SW,225,0.0,0.0,99,0.00,CLR,,0.00,WeatherDisplay:10.37,2013-02-13 06:15:00,
2013-02-13 00:20:00,50.5,50.3,29.79,SW,225,0.0,0.0,99,0.00,CLR,,0.00,WeatherDisplay:10.37,2013-02-13 06:20:00,
2013-02-13 00:25:00,50.5,50.3,29.79,SW,225,2.3,0.0,99,0.00,CLR,,0.00,WeatherDisplay:10.37,2013-02-13 06:25:00,
2013-02-13 00:30:00,50.4,50.1,29.79,West,270,0.0,0.0,99,0.00,CLR,,0.00,WeatherDisplay:10.37,2013-02-13 06:30:00,
2013-02-13 00:35:00,50.5,50.3,29.79,East,90,0.0,0.0,99,0.00,CLR,,0.00,WeatherDisplay:10.37,2013-02-13 06:35:00,
2013-02-13 00:40:00,50.5,50.3,29.79,East,90,0.0,0.0,99,0.00,CLR,,0.00,WeatherDisplay:10.37,2013-02-13 06:40:00,
2013-02-13 00:45:00,50.5,50.3,29.79,East,90,0.0,0.0,99,0.00,CLR,,0.00,WeatherDisplay:10.37,2013-02-13 06:45:00,
2013-02-13 00:50:00,50.5,50.3,29.81,South,180,1.1,0.0,99,0.00,CLR,,0.00,WeatherDisplay:10.37,2013-02-13 06:50:00,
2013-02-13 00:55:00,50.5,50.3,29.81,NE,45,0.0,0.0,99,0.00,CLR,,0.00,WeatherDisplay:10.37,2013-02-13 06:55:00,
2013-02-13 01:00:00,50.5,50.3,29.81,South,180,0.0,0.0,99,0.00,CLR,,0.00,WeatherDisplay:10.37,2013-02-13 07:00:00,
2013-02-13 01:05:00,50.7,50.4,29.81,West,270,1.1,0.0,99,0.00,CLR,,0.00,WeatherDisplay:10.37,2013-02-13 07:05:00,
2013-02-13 01:10:00,50.7,50.4,29.81,SE,135,0.0,0.0,99,0.00,CLR,,0.00,WeatherDisplay:10.37,2013-02-13 07:10:00,
2013-02-13 01:15:00,50.7,50.4,29.81,NW,315,1.1,0.0,99,0.00,CLR,,0.00,WeatherDisplay:10.37,2013-02-13 07:15:00,
2013-02-13 01:20:00,50.7,50.4,29.81,East,90,0.0,0.0,99,0.00,CLR,,0.00,WeatherDisplay:10.37,2013-02-13 07:20:00,
2013-02-13 01:25:00,50.7,50.4,29.81,South,180,1.1,0.0,99,0.00,CLR,,0.00,WeatherDisplay:10.37,2013-02-13 07:25:00,
2013-02-13 01:30:00,50.7,50.4,29.81,SW,225,0.0,0.0,99,0.00,CLR,,0.00,WeatherDisplay:10.37,2013-02-13 07:30:00,
2013-02-13 01:35:00,50.7,50.4,29.81,ENE,68,1.1,0.0,99,0.00,CLR,,0.00,WeatherDisplay:10.37,2013-02-13 07:35:00,
2013-02-13 01:40:00,50.7,50.4,29.81,SW,225,1.1,0.0,99,0.00,CLR,,0.00,WeatherDisplay:10.37,2013-02-13 07:40:00,
2013-02-13 01:46:00,50.7,50.4,29.81,West,270,1.1,0.0,99,0.00,CLR,,0.00,WeatherDisplay:10.37,2013-02-13 07:46:00,
2013-02-13 01:51:00,50.7,50.4,29.81,SE,135,1.1,0.0,99,0.00,CLR,,0.00,WeatherDisplay:10.37,2013-02-13 07:51:00,
2013-02-13 01:56:00,50.5,50.3,29.83,North,0,1.1,0.0,99,0.00,CLR,,0.00,WeatherDisplay:10.37,2013-02-13 07:56:00,
2013-02-13 02:01:00,50.7,50.4,29.83,South,180,0.0,0.0,99,0.00,CLR,,0.00,WeatherDisplay:10.37,2013-02-13 08:01:00,
2013-02-13 02:06:00,50.7,50.4,29.83,South,180,0.0,0.0,99,0.00,CLR,,0.00,WeatherDisplay:10.37,2013-02-13 08:06:00,
2013-02-13 02:11:00,50.7,50.4,29.82,West,270,3.5,0.0,99,0.00,CLR,,0.00,WeatherDisplay:10.37,2013-02-13 08:11:00,
2013-02-13 02:16:00,50.5,50.3,29.83,SW,225,2.3,0.0,99,0.00,CLR,,0.00,WeatherDisplay:10.37,2013-02-13 08:16:00,
2013-02-13 02:21:00,50.5,50.3,29.84,SW,225,2.3,2.3,99,0.00,CLR,,0.00,WeatherDisplay:10.37,2013-02-13 08:21:00,
2013-02-13 02:26:00,50.5,50.3,29.83,NW,315,1.1,0.0,99,0.00,CLR,,0.00,WeatherDisplay:10.37,2013-02-13 08:26:00,
2013-02-13 02:31:00,50.4,50.1,29.84,SW,225,5.8,0.0,99,0.00,CLR,,0.00,WeatherDisplay:10.37,2013-02-13 08:31:00,
2013-02-13 02:36:00,50.4,50.1,29.83,SW,225,2.3,2.3,99,0.00,CLR,,0.00,WeatherDisplay:10.37,2013-02-13 08:36:00,
2013-02-13 02:41:00,50.2,49.9,29.83,West,270,6.9,6.9,99,0.00,CLR,,0.00,WeatherDisplay:10.37,2013-02-13 08:41:00,
2013-02-13 02:46:00,50.2,49.9,29.83,West,270,2.3,2.3,99,0.00,CLR,,0.00,WeatherDisplay:10.37,2013-02-13 08:46:00,
2013-02-13 02:51:00,50.0,49.7,29.83,South,180,6.9,6.9,99,0.00,CLR,,0.00,WeatherDisplay:10.37,2013-02-13 08:51:00,
2013-02-13 02:56:00,50.0,49.7,29.83,West,270,4.6,4.6,99,0.00,CLR,,0.00,WeatherDisplay:10.37,2013-02-13 08:56:00,
2013-02-13 03:01:00,50.0,49.7,29.84,NW,315,3.5,0.0,99,0.00,CLR,,0.00,WeatherDisplay:10.37,2013-02-13 09:01:00,
2013-02-13 03:06:00,50.0,49.7,29.83,NW,315,1.1,0.0,99,0.00,CLR,,0.00,WeatherDisplay:10.37,2013-02-13 09:06:00,
2013-02-13 03:11:00,50.0,49.7,29.83,SW,225,1.1,1.1,99,0.00,CLR,,0.00,WeatherDisplay:10.37,2013-02-13 09:11:00,
2013-02-13 03:16:00,50.0,49.7,29.83,South,180,3.5,3.5,99,0.00,CLR,,0.00,WeatherDisplay:10.37,2013-02-13 09:16:00,
2013-02-13 03:21:00,49.8,49.6,29.84,SW,225,5.8,5.8,99,0.00,CLR,,0.00,WeatherDisplay:10.37,2013-02-13 09:21:00,
2013-02-13 03:26:00,49.8,49.6,29.84,West,270,6.9,6.9,99,0.00,CLR,,0.00,WeatherDisplay:10.37,2013-02-13 09:26:00,
2013-02-13 03:31:00,49.8,49.6,29.84,WSW,248,3.5,3.5,99,0.00,CLR,,0.00,WeatherDisplay:10.37,2013-02-13 09:31:00,
2013-02-13 03:36:00,49.6,49.4,29.83,SW,225,4.6,4.6,99,0.00,CLR,,0.00,WeatherDisplay:10.37,2013-02-13 09:36:00,
2013-02-13 03:41:00,49.5,49.2,29.84,SW,225,3.5,3.5,99,0.00,CLR,,0.00,WeatherDisplay:10.37,2013-02-13 09:41:00,
2013-02-13 03:46:00,49.5,49.2,29.84,WSW,248,3.5,0.0,99,0.00,CLR,,0.00,WeatherDisplay:10.37,2013-02-13 09:46:00,
2013-02-13 03:51:00,49.3,49.0,29.85,West,270,5.8,5.8,99,0.00,CLR,,0.00,WeatherDisplay:10.37,2013-02-13 09:51:00,
2013-02-13 03:56:00,49.3,49.0,29.85,SW,225,5.8,5.8,99,0.00,CLR,,0.00,WeatherDisplay:10.37,2013-02-13 09:56:00,
2013-02-13 04:01:00,49.1,48.8,29.85,West,270,4.6,4.6,99,0.00,CLR,,0.00,WeatherDisplay:10.37,2013-02-13 10:01:00,
2013-02-13 04:06:00,49.1,48.8,29.85,West,270,3.5,3.5,99,0.00,CLR,,0.00,WeatherDisplay:10.37,2013-02-13 10:06:00,
2013-02-13 04:11:00,49.1,48.8,29.85,WSW,248,8.1,8.1,99,0.00,CLR,,0.00,WeatherDisplay:10.37,2013-02-13 10:11:00,
2013-02-13 04:16:00,48.9,48.7,29.86,West,270,8.1,8.1,99,0.00,CLR,,0.00,WeatherDisplay:10.37,2013-02-13 10:16:00,
2013-02-13 04:21:00,48.7,48.5,29.87,West,270,15.0,15.0,99,0.00,CLR,,0.00,WeatherDisplay:10.37,2013-02-13 10:21:00,
2013-02-13 04:26:00,48.6,48.3,29.87,SW,225,8.1,8.1,99,0.00,CLR,,0.00,WeatherDisplay:10.37,2013-02-13 10:26:00,
2013-02-13 04:31:00,48.4,48.1,29.87,WSW,248,9.2,9.2,99,0.00,CLR,,0.00,WeatherDisplay:10.37,2013-02-13 10:31:00,
2013-02-13 04:36:00,48.2,47.9,29.86,NW,315,6.9,6.9,99,0.00,CLR,,0.00,WeatherDisplay:10.37,2013-02-13 10:36:00,
2013-02-13 04:41:00,48.0,47.8,29.86,SE,135,6.9,6.9,99,0.00,CLR,,0.00,WeatherDisplay:10.37,2013-02-13 10:41:00,
2013-02-13 04:46:00,48.0,47.8,29.86,SW,225,3.5,3.5,99,0.00,CLR,,0.00,WeatherDisplay:10.37,2013-02-13 10:46:00,
2013-02-13 04:51:00,47.8,47.6,29.86,SW,225,9.2,9.2,99,0.00,CLR,,0.00,WeatherDisplay:10.37,2013-02-13 10:51:00,
2013-02-13 04:56:00,47.8,47.6,29.86,South,180,5.8,5.8,99,0.00,CLR,,0.00,WeatherDisplay:10.37,2013-02-13 10:56:00,
2013-02-13 05:01:00,47.7,47.4,29.87,SW,225,8.1,8.1,99,0.00,CLR,,0.00,WeatherDisplay:10.37,2013-02-13 11:01:00,
2013-02-13 05:06:00,47.7,47.4,29.87,SW,225,8.1,8.1,99,0.00,CLR,,0.00,WeatherDisplay:10.37,2013-02-13 11:06:00,
2013-02-13 05:11:00,47.3,47.0,29.87,WSW,248,4.6,4.6,99,0.00,CLR,,0.00,WeatherDisplay:10.37,2013-02-13 11:11:00,
2013-02-13 05:16:00,47.3,46.5,29.86,West,270,16.1,16.1,97,0.00,CLR,,0.00,WeatherDisplay:10.37,2013-02-13 11:16:00,
2013-02-13 05:21:00,47.1,46.3,29.87,West,270,5.8,5.8,97,0.00,CLR,,0.00,WeatherDisplay:10.37,2013-02-13 11:21:00,
2013-02-13 05:26:00,46.9,45.9,29.87,SW,225,8.1,8.1,96,0.00,CLR,,0.00,WeatherDisplay:10.37,2013-02-13 11:26:00,
2013-02-13 05:31:00,46.8,45.7,29.87,West,270,5.8,5.8,96,0.00,CLR,,0.00,WeatherDisplay:10.37,2013-02-13 11:31:00,
2013-02-13 05:36:00,46.8,45.7,29.87,SW,225,3.5,3.5,96,0.00,CLR,,0.00,WeatherDisplay:10.37,2013-02-13 11:36:00,
2013-02-13 05:41:00,46.6,45.5,29.88,SW,225,5.4,5.4,96,0.00,CLR,,0.00,WeatherDisplay:10.37,2013-02-13 11:41:00,
2013-02-13 05:46:00,46.4,44.8,29.88,SW,225,8.1,8.1,94,0.00,CLR,,0.00,WeatherDisplay:10.37,2013-02-13 11:46:00,
2013-02-13 05:51:00,46.4,44.8,29.89,SW,225,5.8,5.8,94,0.00,CLR,,0.00,WeatherDisplay:10.37,2013-02-13 11:51:00,
2013-02-13 05:56:00,46.4,44.5,29.89,SW,225,5.8,5.8,93,0.00,CLR,,0.00,WeatherDisplay:10.37,2013-02-13 11:56:00,
2013-02-13 06:01:00,46.4,43.9,29.88,South,180,6.9,6.9,91,0.00,CLR,,0.00,WeatherDisplay:10.37,2013-02-13 12:01:00,
2013-02-13 06:06:00,46.4,43.9,29.88,South,180,6.9,6.9,91,0.00,CLR,,0.00,WeatherDisplay:10.37,2013-02-13 12:06:00,
2013-02-13 06:11:00,46.4,44.5,29.89,SW,225,5.8,5.8,93,0.00,CLR,,0.00,WeatherDisplay:10.37,2013-02-13 12:11:00,
2013-02-13 06:16:00,46.4,44.2,29.88,SW,225,1.1,0.0,92,0.00,CLR,,0.00,WeatherDisplay:10.37,2013-02-13 12:16:00,
2013-02-13 06:21:00,46.4,44.5,29.88,SE,135,3.5,3.5,93,0.00,CLR,,0.00,WeatherDisplay:10.37,2013-02-13 12:21:00,
2013-02-13 06:26:00,46.2,44.0,29.90,NNW,338,3.5,3.5,92,0.00,CLR,,0.00,WeatherDisplay:10.37,2013-02-13 12:26:00,
2013-02-13 06:31:00,46.2,44.0,29.89,SW,225,3.5,3.5,92,0.00,CLR,,0.00,WeatherDisplay:10.37,2013-02-13 12:31:00,
2013-02-13 06:37:00,46.2,44.0,29.90,West,270,3.5,3.5,92,0.00,CLR,,0.00,WeatherDisplay:10.37,2013-02-13 12:37:00,
2013-02-13 06:42:00,46.2,43.2,29.90,South,180,5.8,5.8,89,0.00,CLR,,0.00,WeatherDisplay:10.37,2013-02-13 12:42:00,
2013-02-13 06:47:00,46.2,43.7,29.90,SW,225,10.4,10.4,91,0.00,CLR,,0.00,WeatherDisplay:10.37,2013-02-13 12:47:00,
2013-02-13 06:52:00,46.0,43.6,29.89,West,270,2.3,2.3,91,0.00,CLR,,0.00,WeatherDisplay:10.37,2013-02-13 12:52:00,
2013-02-13 06:57:00,45.9,43.7,29.89,West,270,5.8,5.8,92,0.00,CLR,,0.00,WeatherDisplay:10.37,2013-02-13 12:57:00,
2013-02-13 07:02:00,45.9,43.4,29.90,NW,315,3.5,3.5,91,0.00,CLR,,0.00,WeatherDisplay:10.37,2013-02-13 13:02:00,
2013-02-13 07:07:00,45.9,43.4,29.91,NW,315,3.5,3.5,91,0.00,CLR,,0.00,WeatherDisplay:10.37,2013-02-13 13:07:00,
2013-02-13 07:12:00,45.5,43.0,29.91,SW,225,4.6,4.6,91,0.00,CLR,,0.00,WeatherDisplay:10.37,2013-02-13 13:12:00,
2013-02-13 07:17:00,45.7,42.9,29.91,NE,45,4.6,4.6,90,0.00,CLR,,0.00,WeatherDisplay:10.37,2013-02-13 13:17:00,
2013-02-13 07:22:00,45.9,42.8,29.91,NW,315,3.5,3.5,89,0.00,CLR,,0.00,WeatherDisplay:10.37,2013-02-13 13:22:00,
2013-02-13 07:27:00,45.9,43.1,29.91,West,270,3.5,3.5,90,0.00,CLR,,0.00,WeatherDisplay:10.37,2013-02-13 13:27:00,
2013-02-13 07:32:00,46.0,43.3,29.92,North,0,4.6,4.6,90,0.00,CLR,,0.00,WeatherDisplay:10.37,2013-02-13 13:32:00,
2013-02-13 07:37:00,46.2,43.2,29.92,SW,225,8.1,0.0,89,0.00,CLR,,0.00,WeatherDisplay:10.37,2013-02-13 13:37:00,
2013-02-13 07:42:00,46.2,42.9,29.93,West,270,3.5,3.5,88,0.00,CLR,,0.00,WeatherDisplay:10.37,2013-02-13 13:42:00,
2013-02-13 07:47:00,46.2,42.9,29.94,SE,135,4.6,4.6,88,0.00,CLR,,0.00,WeatherDisplay:10.37,2013-02-13 13:47:00,
2013-02-13 07:52:00,46.4,43.0,29.94,SW,225,3.5,3.5,88,0.00,CLR,,0.00,WeatherDisplay:10.37,2013-02-13 13:52:00,
2013-02-13 07:57:00,46.4,43.3,29.94,South,180,2.3,0.0,89,0.00,CLR,,0.00,WeatherDisplay:10.37,2013-02-13 13:57:00,
2013-02-13 08:02:00,46.4,43.3,29.95,NW,315,3.5,3.5,89,0.00,CLR,,0.00,WeatherDisplay:10.37,2013-02-13 14:02:00,
2013-02-13 08:07:00,46.4,43.3,29.95,NW,315,3.5,3.5,89,0.00,CLR,,0.00,WeatherDisplay:10.37,2013-02-13 14:07:00,
2013-02-13 08:12:00,46.2,43.2,29.95,NE,45,1.1,0.0,89,0.00,CLR,,0.00,WeatherDisplay:10.37,2013-02-13 14:12:00,
2013-02-13 08:17:00,46.2,43.4,29.96,West,270,0.0,0.0,90,0.00,CLR,,0.00,WeatherDisplay:10.37,2013-02-13 14:17:00,
2013-02-13 08:22:00,46.2,43.2,29.96,North,0,5.8,0.0,89,0.00,CLR,,0.00,WeatherDisplay:10.37,2013-02-13 14:22:00,
2013-02-13 08:27:00,46.2,43.4,29.96,West,270,2.3,2.3,90,0.00,CLR,,0.00,WeatherDisplay:10.37,2013-02-13 14:27:00,
2013-02-13 08:32:00,46.2,43.2,29.96,East,90,3.5,3.5,89,0.00,CLR,,0.00,WeatherDisplay:10.37,2013-02-13 14:32:00,
2013-02-13 08:37:00,46.4,43.6,29.97,SW,225,3.5,3.5,90,0.00,CLR,,0.00,WeatherDisplay:10.37,2013-02-13 14:37:00,
2013-02-13 08:42:00,46.4,43.3,29.96,West,270,5.8,5.8,89,0.00,CLR,,0.00,WeatherDisplay:10.37,2013-02-13 14:42:00,
2013-02-13 08:47:00,46.6,43.5,29.96,East,90,5.8,5.8,89,0.00,CLR,,0.00,WeatherDisplay:10.37,2013-02-13 14:47:00,
2013-02-13 08:52:00,46.6,43.8,29.96,WSW,248,5.8,5.8,90,0.00,CLR,,0.00,WeatherDisplay:10.37,2013-02-13 14:52:00,
2013-02-13 08:57:00,46.4,43.6,29.96,SW,225,3.5,3.5,90,0.00,CLR,,0.00,WeatherDisplay:10.37,2013-02-13 14:57:00,
2013-02-13 09:02:00,46.4,43.3,29.96,NE,45,2.3,2.3,89,0.00,CLR,,0.00,WeatherDisplay:10.37,2013-02-13 15:02:00,
2013-02-13 09:07:00,46.4,43.3,29.96,NE,45,2.3,2.3,89,0.00,CLR,,0.00,WeatherDisplay:10.37,2013-02-13 15:07:00,
2013-02-13 09:12:00,46.9,44.2,29.96,SW,225,5.8,5.8,90,0.00,CLR,,0.00,WeatherDisplay:10.37,2013-02-13 15:12:00,
2013-02-13 09:17:00,47.3,43.3,29.96,SW,225,8.1,8.1,86,0.00,CLR,,0.00,WeatherDisplay:10.37,2013-02-13 15:17:00,
2013-02-13 09:22:00,47.8,43.5,29.96,SW,225,8.1,8.1,85,0.00,CLR,,0.00,WeatherDisplay:10.37,2013-02-13 15:22:00,
2013-02-13 09:27:00,48.2,44.2,29.96,South,180,6.0,6.0,86,0.00,CLR,,0.00,WeatherDisplay:10.37,2013-02-13 15:27:00,
2013-02-13 09:32:00,48.2,43.3,29.96,NW,315,5.8,5.8,83,0.00,CLR,,0.00,WeatherDisplay:10.37,2013-02-13 15:32:00,
2013-02-13 09:37:00,48.9,43.3,29.96,South,180,10.4,10.4,81,0.00,CLR,,0.00,WeatherDisplay:10.37,2013-02-13 15:37:00,
2013-02-13 09:42:00,49.6,44.7,29.96,NNE,22,5.8,5.8,83,0.00,CLR,,0.00,WeatherDisplay:10.37,2013-02-13 15:42:00,
2013-02-13 09:47:00,50.2,43.2,29.96,SW,225,8.1,8.1,77,0.00,CLR,,0.00,WeatherDisplay:10.37,2013-02-13 15:47:00,
2013-02-13 09:52:00,50.5,43.6,29.95,South,180,6.9,6.9,77,0.00,CLR,,0.00,WeatherDisplay:10.37,2013-02-13 15:52:00,
2013-02-13 09:57:00,50.2,42.9,29.95,NE,45,8.1,8.1,76,0.00,CLR,,0.00,WeatherDisplay:10.37,2013-02-13 15:57:00,
2013-02-13 10:02:00,50.2,43.2,29.95,North,0,3.5,3.5,77,0.00,CLR,,0.00,WeatherDisplay:10.37,2013-02-13 16:02:00,
2013-02-13 10:07:00,50.2,43.2,29.95,North,0,3.5,3.5,77,0.00,CLR,,0.00,WeatherDisplay:10.37,2013-02-13 16:07:00,
2013-02-13 10:12:00,52.0,43.6,29.95,SW,225,9.2,9.2,73,0.00,CLR,,0.00,WeatherDisplay:10.37,2013-02-13 16:12:00,
2013-02-13 10:17:00,52.0,42.9,29.95,West,270,9.2,9.2,71,0.00,CLR,,0.00,WeatherDisplay:10.37,2013-02-13 16:17:00,
2013-02-13 10:23:00,51.4,42.3,29.96,South,180,12.7,12.7,71,0.00,CLR,,0.00,WeatherDisplay:10.37,2013-02-13 16:23:00,
2013-02-13 10:28:00,52.3,43.6,29.95,South,180,6.9,6.9,72,0.00,CLR,,0.00,WeatherDisplay:10.37,2013-02-13 16:28:00,
2013-02-13 10:33:00,52.7,44.3,29.95,West,270,8.1,8.1,73,0.00,CLR,,0.00,WeatherDisplay:10.37,2013-02-13 16:33:00,
2013-02-13 10:38:00,53.1,43.2,29.96,West,270,12.7,12.7,69,0.00,CLR,,0.00,WeatherDisplay:10.37,2013-02-13 16:38:00,
2013-02-13 10:43:00,52.9,44.1,29.96,North,0,4.6,4.6,72,0.00,CLR,,0.00,WeatherDisplay:10.37,2013-02-13 16:43:00,
2013-02-13 10:48:00,52.9,43.7,29.95,West,270,8.1,8.1,71,0.00,CLR,,0.00,WeatherDisplay:10.37,2013-02-13 16:48:00,
2013-02-13 10:53:00,53.4,42.7,29.96,SW,225,8.1,8.1,67,0.00,CLR,,0.00,WeatherDisplay:10.37,2013-02-13 16:53:00,
2013-02-13 10:58:00,53.1,43.9,29.96,NW,315,8.1,8.1,71,0.00,CLR,,0.00,WeatherDisplay:10.37,2013-02-13 16:58:00,
2013-02-13 11:03:00,52.9,42.6,29.96,West,270,5.8,5.8,68,0.00,CLR,,0.00,WeatherDisplay:10.37,2013-02-13 17:03:00,
2013-02-13 11:08:00,53.4,44.2,29.96,SW,225,5.8,5.8,71,0.00,CLR,,0.00,WeatherDisplay:10.37,2013-02-13 17:08:00,
2013-02-13 11:13:00,53.4,43.1,29.96,NW,315,5.8,5.8,68,0.00,CLR,,0.00,WeatherDisplay:10.37,2013-02-13 17:13:00,
2013-02-13 11:18:00,53.4,43.1,29.95,WSW,248,12.7,12.7,68,0.00,CLR,,0.00,WeatherDisplay:10.37,2013-02-13 17:18:00,
2013-02-13 11:23:00,54.1,44.2,29.95,NE,45,6.9,6.9,69,0.00,CLR,,0.00,WeatherDisplay:10.37,2013-02-13 17:23:00,
2013-02-13 11:28:00,54.0,43.6,29.95,North,0,5.8,5.8,68,0.00,CLR,,0.00,WeatherDisplay:10.37,2013-02-13 17:28:00,
2013-02-13 11:33:00,54.0,44.4,29.95,NW,315,6.9,6.9,70,0.00,CLR,,0.00,WeatherDisplay:10.37,2013-02-13 17:33:00,
2013-02-13 11:38:00,54.7,44.7,29.94,WNW,292,6.9,6.9,69,0.00,CLR,,0.00,WeatherDisplay:10.37,2013-02-13 17:38:00,
2013-02-13 11:43:00,55.8,45.4,29.94,NW,315,3.5,3.8,68,0.00,CLR,,0.00,WeatherDisplay:10.37,2013-02-13 17:43:00,
2013-02-13 11:48:00,55.8,44.2,29.95,West,270,11.5,11.5,65,0.00,CLR,,0.00,WeatherDisplay:10.37,2013-02-13 17:48:00,
2013-02-13 11:53:00,55.9,45.5,29.95,North,0,5.8,5.8,68,0.00,CLR,,0.00,WeatherDisplay:10.37,2013-02-13 17:53:00,
2013-02-13 11:58:00,55.4,43.8,29.95,SW,225,13.8,13.8,65,0.00,CLR,,0.00,WeatherDisplay:10.37,2013-02-13 17:58:00,
2013-02-13 12:03:00,55.0,43.9,29.94,NW,315,5.8,5.8,66,0.00,CLR,,0.00,WeatherDisplay:10.37,2013-02-13 18:03:00,
2013-02-13 12:08:00,55.6,43.2,29.94,SW,225,10.4,10.4,63,0.00,CLR,,0.00,WeatherDisplay:10.37,2013-02-13 18:08:00,
2013-02-13 12:13:00,55.8,43.8,29.94,SE,135,5.8,5.8,64,0.00,CLR,,0.00,WeatherDisplay:10.37,2013-02-13 18:13:00,
2013-02-13 12:18:00,55.6,43.2,29.94,SW,225,13.8,13.8,63,0.00,CLR,,0.00,WeatherDisplay:10.37,2013-02-13 18:18:00,
2013-02-13 12:23:00,55.4,44.2,29.93,West,270,5.8,5.8,66,0.00,CLR,,0.00,WeatherDisplay:10.37,2013-02-13 18:23:00,
2013-02-13 12:28:00,55.4,43.4,29.93,SE,135,4.6,4.6,64,0.00,CLR,,0.00,WeatherDisplay:10.37,2013-02-13 18:28:00,
2013-02-13 12:33:00,55.8,42.5,29.93,NW,315,6.9,6.9,61,0.00,CLR,,0.00,WeatherDisplay:10.37,2013-02-13 18:33:00,
2013-02-13 12:38:00,55.9,43.5,29.93,North,0,8.1,8.1,63,0.00,CLR,,0.00,WeatherDisplay:10.37,2013-02-13 18:38:00,
2013-02-13 12:44:00,55.9,43.5,29.93,West,270,5.8,5.8,63,0.00,CLR,,0.00,WeatherDisplay:10.37,2013-02-13 18:44:00,
2013-02-13 12:49:00,56.7,44.6,29.92,North,0,6.9,6.9,64,0.00,CLR,,0.00,WeatherDisplay:10.37,2013-02-13 18:49:00,
2013-02-13 12:54:00,56.8,42.7,29.93,NW,315,7.6,7.6,59,0.00,CLR,,0.00,WeatherDisplay:10.37,2013-02-13 18:54:00,
2013-02-13 12:59:00,56.5,43.2,29.93,South,180,5.8,5.8,61,0.00,CLR,,0.00,WeatherDisplay:10.37,2013-02-13 18:59:00,
2013-02-13 13:04:00,56.8,44.4,29.93,NE,45,3.5,3.5,63,0.00,CLR,,0.00,WeatherDisplay:10.37,2013-02-13 19:04:00,
2013-02-13 13:09:00,57.9,42.8,29.93,SW,225,8.1,8.1,57,0.00,CLR,,0.00,WeatherDisplay:10.37,2013-02-13 19:09:00,
2013-02-13 13:14:00,57.7,43.9,29.92,SW,225,8.1,8.1,60,0.00,CLR,,0.00,WeatherDisplay:10.37,2013-02-13 19:14:00,
2013-02-13 13:19:00,57.4,42.7,29.92,South,180,8.1,8.1,58,0.00,CLR,,0.00,WeatherDisplay:10.37,2013-02-13 19:19:00,
2013-02-13 13:24:00,56.8,44.4,29.93,North,0,4.6,4.6,63,0.00,CLR,,0.00,WeatherDisplay:10.37,2013-02-13 19:24:00,
2013-02-13 13:29:00,57.4,43.6,29.92,NW,315,5.8,5.8,60,0.00,CLR,,0.00,WeatherDisplay:10.37,2013-02-13 19:29:00,
2013-02-13 13:35:00,56.5,42.8,29.93,West,270,8.1,8.1,60,0.00,CLR,,0.00,WeatherDisplay:10.37,2013-02-13 19:35:00,
2013-02-13 13:40:00,55.9,42.7,29.93,North,0,4.6,4.6,61,0.00,CLR,,0.00,WeatherDisplay:10.37,2013-02-13 19:40:00,
2013-02-13 13:45:00,56.7,43.8,29.92,South,180,5.8,5.8,62,0.00,CLR,,0.00,WeatherDisplay:10.37,2013-02-13 19:45:00,
2013-02-13 13:50:00,56.7,43.8,29.92,North,0,4.6,4.6,62,0.00,CLR,,0.00,WeatherDisplay:10.37,2013-02-13 19:50:00,
2013-02-13 13:55:00,56.7,42.9,29.93,NW,315,6.0,6.0,60,0.00,CLR,,0.00,WeatherDisplay:10.37,2013-02-13 19:55:00,
2013-02-13 14:00:00,56.3,43.1,29.92,WSW,258,2.0,6.0,61,0.00,CLR,,0.00,WeatherDisplay:10.37,2013-02-13 20:00:00,
2013-02-13 14:05:00,55.8,42.1,29.92,WSW,240,3.0,11.0,60,0.00,CLR,,0.00,WeatherDisplay:10.37,2013-02-13 20:05:00,
2013-02-13 14:10:00,55.9,43.1,29.92,WNW,288,1.0,8.0,62,0.00,CLR,,0.00,WeatherDisplay:10.37,2013-02-13 20:10:00,
2013-02-13 14:15:00,55.9,42.2,29.91,SW,225,4.6,4.6,60,0.00,CLR,,0.00,WeatherDisplay:10.37,2013-02-13 20:15:00,
2013-02-13 14:20:00,55.7,42.1,29.92,West,276,5.0,8.0,60,0.00,CLR,,0.00,WeatherDisplay:10.37,2013-02-13 20:20:00,
2013-02-13 14:25:00,55.2,41.6,29.92,WNW,298,2.0,8.0,60,0.00,CLR,,0.00,WeatherDisplay:10.37,2013-02-13 20:25:00,
2013-02-13 14:30:00,55.2,42.0,29.92,SW,225,3.5,3.5,61,0.00,CLR,,0.00,WeatherDisplay:10.37,2013-02-13 20:30:00,
2013-02-13 14:35:00,55.2,42.0,29.92,SW,225,3.5,3.5,61,0.00,CLR,,0.00,WeatherDisplay:10.37,2013-02-13 20:35:00,
2013-02-13 14:40:00,55.9,41.8,29.92,South,180,9.2,9.2,59,0.00,CLR,,0.00,WeatherDisplay:10.37,2013-02-13 20:40:00,
2013-02-13 14:45:00,55.6,41.5,29.91,WSW,248,8.3,8.3,59,0.00,CLR,,0.00,WeatherDisplay:10.37,2013-02-13 20:45:00,
2013-02-13 14:50:00,55.4,41.7,29.92,SW,225,5.8,5.8,60,0.00,CLR,,0.00,WeatherDisplay:10.37,2013-02-13 20:50:00,
2013-02-13 14:55:00,55.9,42.2,29.91,SSW,202,8.1,8.1,60,0.00,CLR,,0.00,WeatherDisplay:10.37,2013-02-13 20:55:00,
2013-02-13 15:01:00,56.1,42.8,29.92,NE,45,4.6,4.6,61,0.00,CLR,,0.00,WeatherDisplay:10.37,2013-02-13 21:01:00,
2013-02-13 15:06:00,56.1,42.4,29.92,North,0,4.6,4.6,60,0.00,CLR,,0.00,WeatherDisplay:10.37,2013-02-13 21:06:00,
2013-02-13 15:11:00,56.3,41.7,29.92,West,270,4.6,4.6,58,0.00,CLR,,0.00,WeatherDisplay:10.37,2013-02-13 21:11:00,
2013-02-13 15:16:00,55.9,41.4,29.91,NE,45,8.1,8.1,58,0.00,CLR,,0.00,WeatherDisplay:10.37,2013-02-13 21:16:00,
2013-02-13 15:21:00,55.4,41.3,29.91,North,0,4.6,4.6,59,0.00,CLR,,0.00,WeatherDisplay:10.37,2013-02-13 21:21:00,
2013-02-13 15:26:00,54.9,40.4,29.91,SW,225,6.9,6.9,58,0.00,CLR,,0.00,WeatherDisplay:10.37,2013-02-13 21:26:00,
2013-02-13 15:31:00,54.9,42.1,29.91,NW,315,4.6,4.6,62,0.00,CLR,,0.00,WeatherDisplay:10.37,2013-02-13 21:31:00,
2013-02-13 15:36:00,54.9,42.1,29.91,NW,315,4.6,4.6,62,0.00,CLR,,0.00,WeatherDisplay:10.37,2013-02-13 21:36:00,
2013-02-13 15:41:00,54.9,41.2,29.92,South,180,5.8,5.8,60,0.00,CLR,,0.00,WeatherDisplay:10.37,2013-02-13 21:41:00,
2013-02-13 15:46:00,54.1,41.4,29.92,SE,135,3.5,3.5,62,0.00,CLR,,0.00,WeatherDisplay:10.37,2013-02-13 21:46:00,
2013-02-13 15:51:00,53.6,40.5,29.91,SW,225,5.8,5.8,61,0.00,CLR,,0.00,WeatherDisplay:10.37,2013-02-13 21:51:00,
2013-02-13 15:56:00,53.6,41.7,29.91,NE,45,3.5,3.5,64,0.00,CLR,,0.00,WeatherDisplay:10.37,2013-02-13 21:56:00,
2013-02-13 16:01:00,53.6,41.7,29.91,SW,225,2.3,2.3,64,0.00,CLR,,0.00,WeatherDisplay:10.37,2013-02-13 22:01:00,
2013-02-13 16:06:00,53.6,41.7,29.91,SW,225,2.3,2.3,64,0.00,CLR,,0.00,WeatherDisplay:10.37,2013-02-13 22:06:00,
2013-02-13 16:11:00,53.8,41.9,29.91,NW,315,3.5,3.5,64,0.00,CLR,,0.00,WeatherDisplay:10.37,2013-02-13 22:11:00,
2013-02-13 16:16:00,53.6,41.7,29.92,West,270,3.5,3.5,64,0.00,CLR,,0.00,WeatherDisplay:10.37,2013-02-13 22:16:00,
2013-02-13 16:21:00,53.2,41.0,29.92,SW,225,5.8,0.0,63,0.00,CLR,,0.00,WeatherDisplay:10.37,2013-02-13 22:21:00,
2013-02-13 16:26:00,53.2,41.4,29.91,NE,45,4.6,4.6,64,0.00,CLR,,0.00,WeatherDisplay:10.37,2013-02-13 22:26:00,
2013-02-13 16:31:00,53.4,41.9,29.91,South,180,2.3,0.0,65,0.00,CLR,,0.00,WeatherDisplay:10.37,2013-02-13 22:31:00,
2013-02-13 16:37:00,53.6,42.1,29.92,West,270,2.3,2.3,65,0.00,CLR,,0.00,WeatherDisplay:10.37,2013-02-13 22:37:00,
2013-02-13 16:42:00,53.4,41.9,29.92,SW,225,4.6,4.6,65,0.00,CLR,,0.00,WeatherDisplay:10.37,2013-02-13 22:42:00,
2013-02-13 16:47:00,53.4,42.3,29.92,SW,225,3.5,3.5,66,0.00,CLR,,0.00,WeatherDisplay:10.37,2013-02-13 22:47:00,
2013-02-13 16:52:00,53.2,41.8,29.93,East,90,1.1,1.1,65,0.00,CLR,,0.00,WeatherDisplay:10.37,2013-02-13 22:52:00,
2013-02-13 16:57:00,53.1,42.0,29.93,West,270,3.5,0.0,66,0.00,CLR,,0.00,WeatherDisplay:10.37,2013-02-13 22:57:00,
2013-02-13 17:02:00,52.9,41.8,29.93,NE,45,3.5,3.5,66,0.00,CLR,,0.00,WeatherDisplay:10.37,2013-02-13 23:02:00,
2013-02-13 17:07:00,52.9,41.8,29.93,NE,45,3.5,3.5,66,0.00,CLR,,0.00,WeatherDisplay:10.37,2013-02-13 23:07:00,
2013-02-13 17:12:00,52.2,41.9,29.93,NW,315,0.0,0.0,68,0.00,CLR,,0.00,WeatherDisplay:10.37,2013-02-13 23:12:00,
2013-02-13 17:17:00,51.8,41.9,29.93,NW,315,0.0,0.0,69,0.00,CLR,,0.00,WeatherDisplay:10.37,2013-02-13 23:17:00,
2013-02-13 17:22:00,51.3,41.8,29.93,West,270,1.1,1.1,70,0.00,CLR,,0.00,WeatherDisplay:10.37,2013-02-13 23:22:00,
2013-02-13 17:27:00,51.1,41.6,29.93,West,270,2.3,0.0,70,0.00,CLR,,0.00,WeatherDisplay:10.37,2013-02-13 23:27:00,
2013-02-13 17:32:00,50.9,41.8,29.93,West,270,1.1,0.0,71,0.00,CLR,,0.00,WeatherDisplay:10.37,2013-02-13 23:32:00,
2013-02-13 17:37:00,50.4,41.7,29.93,North,0,1.1,0.0,72,0.00,CLR,,0.00,WeatherDisplay:10.37,2013-02-13 23:37:00,
2013-02-13 17:42:00,50.0,41.7,29.93,NW,315,2.3,0.0,73,0.00,CLR,,0.00,WeatherDisplay:10.37,2013-02-13 23:42:00,
2013-02-13 17:47:00,49.6,41.7,29.93,NW,315,1.1,0.0,74,0.00,CLR,,0.00,WeatherDisplay:10.37,2013-02-13 23:47:00,
2013-02-13 17:52:00,49.1,41.5,29.93,South,180,0.0,0.0,75,0.00,CLR,,0.00,WeatherDisplay:10.37,2013-02-13 23:52:00,
2013-02-13 17:57:00,48.7,41.2,29.94,North,0,0.0,0.0,75,0.00,CLR,,0.00,WeatherDisplay:10.37,2013-02-13 23:57:00,
2013-02-13 18:02:00,48.6,41.3,29.94,South,180,0.0,0.0,76,0.00,CLR,,0.00,WeatherDisplay:10.37,2013-02-14 00:02:00,
2013-02-13 18:07:00,48.6,41.3,29.94,South,180,0.0,0.0,76,0.00,CLR,,0.00,WeatherDisplay:10.37,2013-02-14 00:07:00,
2013-02-13 18:12:00,47.3,40.8,29.94,West,270,0.0,0.0,78,0.00,CLR,,0.00,WeatherDisplay:10.37,2013-02-14 00:12:00,
2013-02-13 18:17:00,46.8,40.6,29.94,West,270,0.0,0.0,79,0.00,CLR,,0.00,WeatherDisplay:10.37,2013-02-14 00:17:00,
2013-02-13 18:22:00,46.2,40.4,29.94,West,270,0.0,0.0,80,0.00,CLR,,0.00,WeatherDisplay:10.37,2013-02-14 00:22:00,
2013-02-13 18:27:00,45.9,40.4,29.95,West,270,0.0,0.0,81,0.00,CLR,,0.00,WeatherDisplay:10.37,2013-02-14 00:27:00,
2013-02-13 18:33:00,45.5,40.0,29.94,West,270,0.0,0.0,81,0.00,CLR,,0.00,WeatherDisplay:10.37,2013-02-14 00:33:00,
2013-02-13 18:38:00,45.0,39.8,29.94,West,270,0.0,0.0,82,0.00,CLR,,0.00,WeatherDisplay:10.37,2013-02-14 00:38:00,
2013-02-13 18:43:00,44.8,39.9,29.94,West,270,0.0,0.0,83,0.00,CLR,,0.00,WeatherDisplay:10.37,2013-02-14 00:43:00,
2013-02-13 18:48:00,44.4,39.9,29.95,West,270,0.0,0.0,84,0.00,CLR,,0.00,WeatherDisplay:10.37,2013-02-14 00:48:00,
2013-02-13 18:53:00,44.2,40.0,29.95,West,270,0.0,0.0,85,0.00,CLR,,0.00,WeatherDisplay:10.37,2013-02-14 00:53:00,
2013-02-13 18:58:00,44.1,39.8,29.95,West,270,0.0,0.0,85,0.00,CLR,,0.00,WeatherDisplay:10.37,2013-02-14 00:58:00,
2013-02-13 19:03:00,43.9,39.7,29.95,West,270,0.0,0.0,85,0.00,CLR,,0.00,WeatherDisplay:10.37,2013-02-14 01:03:00,
2013-02-13 19:08:00,43.5,39.6,29.95,West,270,0.0,0.0,86,0.00,CLR,,0.00,WeatherDisplay:10.37,2013-02-14 01:08:00,
2013-02-13 19:13:00,43.3,39.4,29.95,West,270,0.0,0.0,86,0.00,CLR,,0.00,WeatherDisplay:10.37,2013-02-14 01:13:00,
2013-02-13 19:19:00,43.2,39.6,29.96,West,270,0.0,0.0,87,0.00,CLR,,0.00,WeatherDisplay:10.37,2013-02-14 01:19:00,
2013-02-13 19:24:00,43.2,39.6,29.96,West,270,0.0,0.0,87,0.00,CLR,,0.00,WeatherDisplay:10.37,2013-02-14 01:24:00,
2013-02-13 19:29:00,43.0,39.7,29.96,NE,45,0.0,0.0,88,0.00,CLR,,0.00,WeatherDisplay:10.37,2013-02-14 01:29:00,
2013-02-13 19:34:00,42.8,39.8,29.96,NE,45,0.0,0.0,89,0.00,CLR,,0.00,WeatherDisplay:10.37,2013-02-14 01:34:00,
2013-02-13 19:39:00,42.6,39.6,29.96,NE,45,0.0,0.0,89,0.00,CLR,,0.00,WeatherDisplay:10.37,2013-02-14 01:39:00,
2013-02-13 19:44:00,42.4,39.4,29.96,NE,45,0.0,0.0,89,0.00,CLR,,0.00,WeatherDisplay:10.37,2013-02-14 01:44:00,
2013-02-13 19:49:00,42.3,39.2,29.96,NE,45,0.0,0.0,89,0.00,CLR,,0.00,WeatherDisplay:10.37,2013-02-14 01:49:00,
2013-02-13 19:54:00,42.1,39.1,29.97,NE,45,0.0,0.0,89,0.00,CLR,,0.00,WeatherDisplay:10.37,2013-02-14 01:54:00,
2013-02-13 20:00:00,41.9,39.2,29.96,NE,45,0.0,0.0,90,0.00,CLR,,0.00,WeatherDisplay:10.37,2013-02-14 02:00:00,
2013-02-13 20:05:00,41.9,39.2,29.97,NE,45,0.0,0.0,90,0.00,CLR,,0.00,WeatherDisplay:10.37,2013-02-14 02:05:00,
2013-02-13 20:10:00,41.4,38.6,29.97,NE,45,0.0,0.0,90,0.00,CLR,,0.00,WeatherDisplay:10.37,2013-02-14 02:10:00,
2013-02-13 20:15:00,41.4,38.9,29.97,NE,45,0.0,0.0,91,0.00,CLR,,0.00,WeatherDisplay:10.37,2013-02-14 02:15:00,
2013-02-13 20:20:00,41.2,38.8,29.97,NE,45,0.0,0.0,91,0.00,CLR,,0.00,WeatherDisplay:10.37,2013-02-14 02:20:00,
2013-02-13 20:25:00,41.0,38.6,29.98,NE,45,0.0,0.0,91,0.00,CLR,,0.00,WeatherDisplay:10.37,2013-02-14 02:25:00,
2013-02-13 20:30:00,41.0,38.6,29.98,NE,45,0.0,0.0,91,0.00,CLR,,0.00,WeatherDisplay:10.37,2013-02-14 02:30:00,
2013-02-13 20:35:00,41.0,38.9,29.98,SW,225,0.0,0.0,92,0.00,CLR,,0.00,WeatherDisplay:10.37,2013-02-14 02:35:00,
2013-02-13 20:40:00,40.8,38.7,29.98,SW,225,0.0,0.0,92,0.00,CLR,,0.00,WeatherDisplay:10.37,2013-02-14 02:40:00,
2013-02-13 20:45:00,40.8,38.7,29.98,SW,225,0.0,0.0,92,0.00,CLR,,0.00,WeatherDisplay:10.37,2013-02-14 02:45:00,
2013-02-13 20:50:00,40.6,38.8,29.98,SW,225,0.0,0.0,93,0.00,CLR,,0.00,WeatherDisplay:10.37,2013-02-14 02:50:00,
2013-02-13 20:55:00,40.5,38.6,29.98,SW,225,0.0,0.0,93,0.00,CLR,,0.00,WeatherDisplay:10.37,2013-02-14 02:55:00,
2013-02-13 21:00:00,40.3,38.4,29.98,SW,225,0.0,0.0,93,0.00,CLR,,0.00,WeatherDisplay:10.37,2013-02-14 03:00:00,
2013-02-13 21:05:00,40.3,38.4,29.98,SW,225,0.0,0.0,93,0.00,CLR,,0.00,WeatherDisplay:10.37,2013-02-14 03:05:00,
2013-02-13 21:10:00,40.1,38.2,29.98,NW,315,0.0,0.0,93,0.00,CLR,,0.00,WeatherDisplay:10.37,2013-02-14 03:10:00,
2013-02-13 21:15:00,40.1,38.2,29.98,NW,315,0.0,0.0,93,0.00,CLR,,0.00,WeatherDisplay:10.37,2013-02-14 03:15:00,
2013-02-13 21:20:00,40.1,38.5,29.98,NW,315,0.0,0.0,94,0.00,CLR,,0.00,WeatherDisplay:10.37,2013-02-14 03:20:00,
2013-02-13 21:25:00,40.1,38.5,29.98,NW,315,0.0,0.0,94,0.00,CLR,,0.00,WeatherDisplay:10.37,2013-02-14 03:25:00,
2013-02-13 21:30:00,40.1,38.5,29.98,NW,315,0.0,0.0,94,0.00,CLR,,0.00,WeatherDisplay:10.37,2013-02-14 03:30:00,
2013-02-13 21:35:00,39.9,38.3,29.99,NW,315,0.0,0.0,94,0.00,CLR,,0.00,WeatherDisplay:10.37,2013-02-14 03:35:00,
2013-02-13 21:40:00,39.7,38.2,29.98,NW,315,0.0,0.0,94,0.00,CLR,,0.00,WeatherDisplay:10.37,2013-02-14 03:40:00,
2013-02-13 21:45:00,39.7,38.2,29.99,NW,315,0.0,0.0,94,0.00,CLR,,0.00,WeatherDisplay:10.37,2013-02-14 03:45:00,
2013-02-13 21:50:00,39.6,38.2,29.99,NW,315,0.0,0.0,95,0.00,CLR,,0.00,WeatherDisplay:10.37,2013-02-14 03:50:00,
2013-02-13 21:55:00,39.6,38.2,29.99,SE,135,0.0,0.0,95,0.00,CLR,,0.00,WeatherDisplay:10.37,2013-02-14 03:55:00,
2013-02-13 22:00:00,39.4,38.1,29.98,SE,135,0.0,0.0,95,0.00,CLR,,0.00,WeatherDisplay:10.37,2013-02-14 04:00:00,
2013-02-13 22:05:00,39.4,38.1,29.98,SE,135,0.0,0.0,95,0.00,CLR,,0.00,WeatherDisplay:10.37,2013-02-14 04:05:00,
2013-02-13 22:10:00,39.2,37.9,29.98,West,270,0.0,0.0,95,0.00,CLR,,0.00,WeatherDisplay:10.37,2013-02-14 04:10:00,
2013-02-13 22:15:00,39.0,37.7,29.99,West,270,0.0,0.0,95,0.00,CLR,,0.00,WeatherDisplay:10.37,2013-02-14 04:15:00,
2013-02-13 22:20:00,38.8,37.5,29.99,West,270,0.0,0.0,95,0.00,CLR,,0.00,WeatherDisplay:10.37,2013-02-14 04:20:00,
2013-02-13 22:25:00,38.8,37.5,29.99,West,270,0.0,0.0,95,0.00,CLR,,0.00,WeatherDisplay:10.37,2013-02-14 04:25:00,
2013-02-13 22:30:00,38.7,37.4,29.99,West,270,0.0,0.0,95,0.00,CLR,,0.00,WeatherDisplay:10.37,2013-02-14 04:30:00,
2013-02-13 22:35:00,38.5,37.2,29.98,West,270,0.0,0.0,95,0.00,CLR,,0.00,WeatherDisplay:10.37,2013-02-14 04:35:00,
2013-02-13 22:40:00,38.5,37.2,29.98,West,270,0.0,0.0,95,0.00,CLR,,0.00,WeatherDisplay:10.37,2013-02-14 04:40:00,
2013-02-13 22:45:00,38.5,37.2,29.98,West,270,0.0,0.0,95,0.00,CLR,,0.00,WeatherDisplay:10.37,2013-02-14 04:45:00,
2013-02-13 22:50:00,38.3,37.3,29.98,West,270,0.0,0.0,96,0.00,CLR,,0.00,WeatherDisplay:10.37,2013-02-14 04:50:00,
2013-02-13 22:55:00,38.1,37.1,29.99,West,270,0.0,0.0,96,0.00,CLR,,0.00,WeatherDisplay:10.37,2013-02-14 04:55:00,
2013-02-13 23:00:00,38.1,36.8,29.99,West,270,0.0,0.0,95,0.00,CLR,,0.00,WeatherDisplay:10.37,2013-02-14 05:00:00,
2013-02-13 23:05:00,38.1,36.8,29.98,West,270,0.0,0.0,95,0.00,CLR,,0.00,WeatherDisplay:10.37,2013-02-14 05:05:00,
2013-02-13 23:10:00,37.8,36.7,29.99,West,270,0.0,0.0,96,0.00,CLR,,0.00,WeatherDisplay:10.37,2013-02-14 05:10:00,
2013-02-13 23:15:00,37.9,36.9,29.99,West,270,0.0,0.0,96,0.00,CLR,,0.00,WeatherDisplay:10.37,2013-02-14 05:15:00,
2013-02-13 23:20:00,37.8,36.7,29.99,North,0,0.0,0.0,96,0.00,CLR,,0.00,WeatherDisplay:10.37,2013-02-14 05:20:00,
2013-02-13 23:25:00,37.8,36.7,29.99,North,0,0.0,0.0,96,0.00,CLR,,0.00,WeatherDisplay:10.37,2013-02-14 05:25:00,
2013-02-13 23:30:00,37.8,36.7,29.98,NW,315,0.0,0.0,96,0.00,CLR,,0.00,WeatherDisplay:10.37,2013-02-14 05:30:00,
2013-02-13 23:35:00,37.8,36.7,29.98,NW,315,0.0,0.0,96,0.00,CLR,,0.00,WeatherDisplay:10.37,2013-02-14 05:35:00,
2013-02-13 23:40:00,37.8,36.7,29.99,WNW,298,0.0,0.0,96,0.00,CLR,,0.00,WeatherDisplay:10.37,2013-02-14 05:40:00,
2013-02-13 23:45:00,37.8,36.7,29.98,West,270,0.0,0.0,96,0.00,CLR,,0.00,WeatherDisplay:10.37,2013-02-14 05:45:00,
2013-02-13 23:50:00,37.8,37.0,29.98,West,270,0.0,0.0,97,0.00,CLR,,0.00,WeatherDisplay:10.37,2013-02-14 05:50:00,
2013-02-13 23:55:00,37.8,37.0,29.98,NW,315,0.0,0.0,97,0.00,CLR,,0.00,WeatherDisplay:10.37,2013-02-14 05:55:00,